Latest Weather Observations for Lajamanu

IDD60801

Issued at 9:05 pm CST Wednesday 23 April 2014 (issued every 30 minutes, with the page automatically refreshed every 10 minutes)

About weather observations | Map of weather stations | Latest weather observations for NT | Other Formats
Station Details ID: 014829 Name: LAJAMANU AIRPORT Lat: -18.33 Lon: 130.64 Height: 315.6 m
Data from the previous 72 hours. | See also: Recent months at Lajamanu
Date/Time
CST
Temp
°C
App
Temp
°C
Dew
Point
Rel
Hum
%
Delta-T
°C
Wind Press
QNH
hPa
Press
MSL
hPa
Rain
since 9 am
mm
Dir
 
Spd
km/h
Gust
km/h
Spd
kts
Gust
kts
23/09:00pm 23.1 21.5 10.2 44 7.2 SSE 9 11 5 6 1012.4 1010.6 0.0
23/08:30pm 22.8 21.5 9.9 44 7.1 SE 7 9 4 5 1012.0 - 0.0
23/08:00pm 23.4 22.1 9.8 42 7.5 SE 7 9 4 5 1011.6 - 0.0
23/07:30pm 24.6 23.3 10.1 40 8.1 SE 7 9 4 5 1011.3 - 0.0
23/07:00pm 25.6 24.1 9.0 35 9.2 SE 7 9 4 5 1010.8 - 0.0
23/06:30pm 28.6 26.6 8.8 29 11.1 SE 9 13 5 7 1010.6 - 0.0
23/06:00pm 30.5 27.5 7.7 24 12.6 SE 13 17 7 9 1010.2 1008.3 0.0
23/05:30pm 31.8 28.0 7.5 22 13.5 ESE 17 22 9 12 1010.0 - 0.0
23/05:00pm 32.5 28.3 7.4 21 14.0 ESE 19 28 10 15 1010.0 - 0.0
23/04:30pm 32.8 28.6 7.6 21 14.1 ESE 19 28 10 15 1010.2 - 0.0
23/04:00pm 33.4 29.0 6.6 19 14.8 SE 19 26 10 14 1010.3 - 0.0
23/03:30pm 33.2 28.6 6.5 19 14.7 ESE 20 33 11 18 1010.6 - 0.0
23/03:00pm 33.6 28.9 6.0 18 15.1 E 20 30 11 16 1010.8 1008.9 0.0
23/02:30pm 33.9 28.9 6.3 18 15.2 SE 22 39 12 21 1011.3 - 0.0
23/02:00pm 33.5 28.4 5.9 18 15.1 ESE 22 28 12 15 1011.7 - 0.0
23/01:30pm 32.6 27.5 6.0 19 14.5 E 22 33 12 18 1012.0 - 0.0
23/01:00pm 32.7 28.3 8.9 23 13.6 ESE 22 33 12 18 1012.4 - 0.0
23/12:30pm 32.4 26.8 7.3 21 13.9 ESE 26 37 14 20 1013.0 - 0.0
23/12:00pm 32.1 27.2 7.0 21 13.8 ESE 22 30 12 16 1013.5 1011.6 0.0
23/11:30am 31.6 27.0 6.6 21 13.7 ESE 20 28 11 15 1013.8 - 0.0
23/11:00am 30.5 27.1 7.7 24 12.6 SSE 15 20 8 11 1014.1 - 0.0
23/10:30am 29.1 25.6 7.1 25 12.0 SSE 15 20 8 11 1014.2 - 0.0
23/10:00am 27.7 25.4 9.0 31 10.4 SSE 11 17 6 9 1014.4 - 0.0
23/09:30am 25.7 23.2 8.2 33 9.5 SE 11 15 6 8 1014.4 - 0.0
23/09:00am 23.4 21.8 10.1 43 7.4 S 9 13 5 7 1014.2 1012.3 0.0
23/08:30am 20.5 19.3 10.3 52 5.6 SSW 7 11 4 6 1014.0 - 0.0
23/08:00am 18.2 16.8 9.5 57 4.6 S 7 9 4 5 1013.9 - 0.0
23/07:30am 16.1 14.8 9.8 66 3.3 S 7 9 4 5 1013.7 - 0.0
23/07:00am 14.8 13.6 10.2 74 2.4 S 7 9 4 5 1013.5 - 0.0
23/06:30am 14.1 13.1 10.3 78 2.0 W 6 7 3 4 1013.0 - 0.0
23/06:00am 15.0 14.1 10.8 76 2.3 WNW 6 6 3 3 1012.8 1011.0 0.0
23/05:30am 15.1 14.9 10.5 74 2.5 SW 2 7 1 4 1012.6 - 0.0
23/05:00am 14.7 14.0 10.1 74 2.4 SW 4 7 2 4 1012.7 - 0.0
23/04:30am 14.6 13.6 10.2 75 2.3 SW 6 7 3 4 1012.7 - 0.0
23/04:00am 14.8 13.7 10.0 73 2.5 SW 6 7 3 4 1012.7 - 0.0
23/03:30am 15.7 15.4 10.0 69 3.0 W 2 7 1 4 1012.8 - 0.0
23/03:00am 16.6 15.3 9.3 62 3.9 W 6 7 3 4 1013.1 1011.2 0.0
23/02:30am 18.3 16.3 8.6 53 5.1 E 9 17 5 9 1013.4 - 0.0
23/02:00am 17.8 16.6 10.2 61 4.1 NW 7 9 4 5 1013.2 - 0.0
23/01:30am 18.0 17.2 10.9 63 3.9 WNW 6 7 3 4 1013.4 - 0.0
23/01:00am 17.4 16.6 11.2 67 3.4 W 6 7 3 4 1013.6 - 0.0
23/12:30am 17.0 16.2 11.7 71 2.9 W 7 9 4 5 1013.9 - 0.0
23/12:00am 18.0 17.4 10.4 61 4.1 W 4 9 2 5 1014.2 1012.3 0.0
 
Date/Time
CST
Temp
°C
App
Temp
°C
Dew
Point
Rel
Hum
%
Delta-T
°C
Wind Press
QNH
hPa
Press
MSL
hPa
Rain
since 9 am
mm
Dir
 
Spd
km/h
Gust
km/h
Spd
kts
Gust
kts
22/11:30pm 17.5 16.4 10.1 62 4.0 S 6 7 3 4 1014.2 - 0.0
22/11:00pm 18.0 17.7 10.1 60 4.3 S 2 6 1 3 1014.1 - 0.0
22/10:30pm 19.1 18.6 10.6 58 4.7 S 4 7 2 4 1014.3 - 0.0
22/10:00pm 18.1 18.5 11.4 65 3.7 CALM 0 0 0 0 1014.1 - 0.0
22/09:30pm 19.0 18.9 9.5 54 5.1 CALM 0 4 0 2 1014.0 - 0.0
22/09:00pm 20.1 18.4 8.4 47 6.2 ENE 7 9 4 5 1013.9 1012.0 0.0
22/08:30pm 21.4 19.6 8.0 42 7.1 ENE 7 9 4 5 1013.7 - 0.0
22/08:00pm 22.1 19.2 6.7 37 8.0 ENE 11 11 6 6 1013.3 - 0.0
22/07:30pm 23.9 21.4 6.7 33 9.0 E 9 11 5 6 1012.8 - 0.0
22/07:00pm 23.4 21.3 6.7 34 8.7 ESE 7 11 4 6 1012.4 - 0.0
22/06:30pm 26.1 24.2 7.7 31 9.9 SE 7 9 4 5 1012.0 - 0.0
22/06:00pm 30.2 27.2 6.1 22 13.0 ESE 11 15 6 8 1011.7 1009.9 0.0
22/05:30pm 31.3 26.9 4.9 19 14.0 ESE 17 22 9 12 1011.4 - 0.0
22/05:00pm 32.0 28.0 4.7 18 14.5 SE 15 19 8 10 1011.3 - 0.0
22/04:30pm 32.2 27.0 2.3 15 15.3 SE 19 28 10 15 1011.4 - 0.0
22/04:00pm 32.6 27.6 3.5 16 15.2 SE 19 30 10 16 1011.5 - 0.0
22/03:30pm 32.8 28.0 4.6 17 15.0 SE 19 28 10 15 1011.6 - 0.0
22/03:00pm 32.7 29.4 4.5 17 15.0 SE 11 17 6 9 1011.8 1010.0 0.0
22/02:30pm 32.7 28.6 6.1 19 14.5 E 17 28 9 15 1012.2 - 0.0
22/02:00pm 32.4 27.7 5.0 18 14.7 SSE 19 26 10 14 1012.8 - 0.0
22/01:30pm 32.8 28.1 6.2 19 14.5 SSE 20 30 11 16 1013.2 - 0.0
22/01:00pm 32.5 28.7 5.9 19 14.4 SSE 15 28 8 15 1013.8 - 0.0
22/12:30pm 32.1 27.7 4.8 18 14.5 ESE 17 26 9 14 1014.4 - 0.0
22/12:00pm 31.9 27.8 6.2 20 14.0 SE 17 26 9 14 1014.9 1013.1 0.0
22/11:30am 31.1 27.2 6.9 22 13.3 ESE 17 26 9 14 1015.4 - 0.0
22/11:00am 29.8 28.0 10.9 31 11.0 ESE 11 15 6 8 1015.9 - 0.0
22/10:30am 27.7 25.4 9.0 31 10.4 SE 11 15 6 8 1016.3 - 0.0
22/10:00am 26.0 24.1 8.9 34 9.4 SE 9 15 5 8 1016.3 - 0.0
22/09:30am 24.0 22.6 9.6 40 8.0 S 7 11 4 6 1016.3 - 0.0
22/09:00am 23.2 22.0 10.3 44 7.2 S 7 13 4 7 1016.0 1014.2 0.0
22/08:30am 21.0 19.4 10.2 50 5.9 SSW 9 13 5 7 1015.9 - 0.0
22/08:00am 18.6 17.6 10.4 59 4.5 WSW 6 9 3 5 1015.5 - 0.0
22/07:30am 15.2 14.3 10.8 75 2.4 S 6 7 3 4 1015.2 - 0.0
22/07:00am 14.3 13.0 9.1 71 2.7 SSE 6 6 3 3 1014.9 - 0.0
22/06:30am 15.5 14.1 9.0 65 3.4 SE 6 9 3 5 1014.6 - 0.0
22/06:00am 15.6 15.5 9.3 66 3.3 CALM 0 4 0 2 1014.2 1012.3 0.0
22/05:30am 17.6 15.9 8.5 55 4.8 SSE 7 9 4 5 1013.9 - 0.0
22/05:00am 18.5 16.5 8.7 53 5.2 SSE 9 13 5 7 1013.7 - 0.0
22/04:30am 18.3 16.8 9.1 55 4.9 SSE 7 9 4 5 1013.7 - 0.0
22/04:00am 19.0 17.4 8.9 52 5.4 S 7 11 4 6 1014.0 - 0.0
22/03:30am 19.2 17.5 9.9 55 5.0 SSE 9 11 5 6 1014.0 - 0.0
22/03:00am 17.6 16.6 10.2 62 4.0 S 6 7 3 4 1014.2 1012.3 0.0
22/02:30am 18.7 18.9 10.5 59 4.5 CALM 0 2 0 1 1014.4 - 0.0
22/02:00am 18.0 16.9 10.6 62 4.0 S 7 9 4 5 1014.5 - 0.0
22/01:30am 18.1 17.0 10.0 59 4.4 S 6 7 3 4 1014.8 - 0.0
22/01:00am 18.4 17.5 10.7 61 4.2 S 6 7 3 4 1015.0 - 0.0
22/12:30am 18.8 19.5 12.1 65 3.8 CALM 0 0 0 0 1015.2 - 0.0
22/12:00am 17.4 16.6 11.2 67 3.4 SSW 6 6 3 3 1014.8 1013.0 0.0
 
Date/Time
CST
Temp
°C
App
Temp
°C
Dew
Point
Rel
Hum
%
Delta-T
°C
Wind Press
QNH
hPa
Press
MSL
hPa
Rain
since 9 am
mm
Dir
 
Spd
km/h
Gust
km/h
Spd
kts
Gust
kts
21/11:30pm 18.7 19.1 11.3 62 4.1 CALM 0 0 0 0 1014.9 - 0.0
21/11:00pm 18.5 17.5 10.3 59 4.5 SSE 6 9 3 5 1014.9 - 0.0
21/10:30pm 18.7 17.5 9.5 55 4.9 SE 6 7 3 4 1014.9 - 0.0
21/10:00pm 19.3 18.0 10.0 55 5.0 SE 7 7 4 4 1015.0 - 0.0
21/09:30pm 20.2 18.8 9.7 51 5.7 SE 7 9 4 5 1014.9 - 0.0
21/09:00pm 20.6 19.3 10.1 51 5.7 SE 7 9 4 5 1014.7 1012.9 0.0
21/08:30pm 20.9 19.5 9.5 48 6.2 SE 7 9 4 5 1014.5 - 0.0
21/08:00pm 22.7 21.2 9.1 42 7.4 E 7 9 4 5 1014.2 - 0.0
21/07:30pm 22.5 21.2 9.3 43 7.2 ESE 6 7 3 4 1013.9 - 0.0
21/07:00pm 23.9 22.4 9.1 39 8.1 ESE 7 9 4 5 1013.6 - 0.0
21/06:30pm 26.5 24.5 8.5 32 9.9 E 9 11 5 6 1013.4 - 0.0
21/06:00pm 29.4 27.1 7.3 25 12.1 E 9 11 5 6 1013.2 1011.3 0.0
21/05:30pm 30.8 28.2 6.0 21 13.4 E 9 17 5 9 1012.7 - 0.0
21/05:00pm 31.3 28.4 4.9 19 14.0 E 9 15 5 8 1012.5 - 0.0
21/04:30pm 31.7 28.0 4.5 18 14.4 E 13 17 7 9 1012.4 - 0.0
21/04:00pm 32.3 29.2 5.7 19 14.4 ENE 11 20 6 11 1012.4 - 0.0
21/03:30pm 32.2 28.8 5.7 19 14.3 E 13 22 7 12 1012.3 - 0.0
21/03:00pm 32.4 28.6 5.8 19 14.4 E 15 30 8 16 1012.5 1010.7 0.0
21/02:30pm 32.2 28.4 5.7 19 14.3 E 15 32 8 17 1012.6 - 0.0
21/02:00pm 31.9 28.0 5.4 19 14.2 E 15 26 8 14 1013.1 - 0.0
21/01:30pm 31.7 27.0 6.0 20 13.9 E 20 32 11 17 1013.5 - 0.0
21/01:00pm 31.3 26.5 5.7 20 13.8 E 20 28 11 15 1014.0 - 0.0
21/12:30pm 31.0 26.7 6.8 22 13.2 ENE 19 32 10 17 1014.5 - 0.0
21/12:00pm 30.3 25.9 7.5 24 12.6 ENE 20 28 11 15 1015.0 1013.2 0.0
21/11:30am 30.1 26.2 7.3 24 12.5 E 17 28 9 15 1015.5 - 0.0
21/11:00am 28.9 24.4 6.3 24 12.1 E 19 30 10 16 1015.9 - 0.0
21/10:30am 28.5 24.2 7.1 26 11.6 E 19 28 10 15 1016.0 - 0.0
21/10:00am 26.8 23.2 6.8 28 10.7 E 15 22 8 12 1016.1 - 0.0
21/09:30am 25.0 22.4 9.3 37 8.7 E 13 17 7 9 1016.0 - 0.0
21/09:00am 22.2 20.3 10.4 47 6.5 ESE 11 19 6 10 1015.9 1014.1 0.0
21/08:30am 20.0 18.7 9.9 52 5.5 SE 7 17 4 9 1015.9 - 0.0
21/08:00am 17.6 16.6 8.7 56 4.7 S 4 7 2 4 1015.1 - 0.0
21/07:30am 13.5 13.8 10.9 84 1.4 CALM 0 6 0 3 1014.9 - 0.0
21/07:00am 12.8 12.3 9.4 80 1.8 SSW 2 6 1 3 1014.6 - 0.0
21/06:30am 13.3 12.9 9.7 79 1.9 SW 2 6 1 3 1014.1 - 0.0
21/06:00am 13.5 13.6 10.1 80 1.8 CALM 0 0 0 0 1013.7 1011.8 0.0
21/05:30am 13.0 11.8 9.4 79 1.9 SSW 6 7 3 4 1013.4 - 0.0
21/05:00am 13.1 12.8 8.6 74 2.3 CALM 0 6 0 3 1013.3 - 0.0
21/04:30am 13.2 12.0 9.6 79 1.9 SSW 6 6 3 3 1013.1 - 0.0
21/04:00am 13.3 12.0 9.2 76 2.1 S 6 7 3 4 1013.2 - 0.0
21/03:30am 14.0 13.7 8.6 70 2.8 CALM 0 0 0 0 1013.2 - 0.0
21/03:00am 14.3 12.7 8.0 66 3.2 S 6 7 3 4 1013.3 1011.4 0.0
21/02:30am 14.2 12.6 8.8 70 2.8 S 7 9 4 5 1013.5 - 0.0
21/02:00am 14.4 13.0 9.4 72 2.6 S 7 7 4 4 1013.8 - 0.0
21/01:30am 15.0 14.4 9.1 68 3.1 SE 2 7 1 4 1014.0 - 0.0
21/01:00am 15.2 14.8 8.2 63 3.6 CALM 0 4 0 2 1014.1 - 0.0
21/12:30am 15.5 14.1 9.0 65 3.4 SE 6 6 3 3 1014.2 - 0.0
21/12:00am 16.0 14.7 9.2 64 3.6 SSE 6 7 3 4 1014.3 1012.5 0.0
 
Date/Time
CST
Temp
°C
App
Temp
°C
Dew
Point
Rel
Hum
%
Delta-T
°C
Wind Press
QNH
hPa
Press
MSL
hPa
Rain
since 9 am
mm
Dir
 
Spd
km/h
Gust
km/h
Spd
kts
Gust
kts
20/11:30pm 17.0 15.1 7.4 53 4.9 ESE 7 7 4 4 1014.3 - 0.0
20/11:00pm 18.2 16.4 7.9 51 5.3 E 7 9 4 5 1014.4 - 0.0
20/10:30pm 19.4 17.5 9.0 51 5.5 E 9 11 5 6 1014.5 - 0.0
20/10:00pm 19.5 17.9 8.8 50 5.7 ESE 7 9 4 5 1014.7 - 0.0
20/09:30pm 18.9 16.9 8.8 52 5.3 SE 9 9 5 5 1014.6 - 0.0

Other Formats:

Comma delimited format used in spreadsheet applications
http://www.bom.gov.au/fwo/IDD60801/IDD60801.94231.axf

JavaScript Object Notation format (JSON) in row-major order
http://www.bom.gov.au/fwo/IDD60801/IDD60801.94231.json